createdAt,value
2022-12-11T00:01:20.019Z,65.00
2022-12-11T00:03:49.422Z,71.00
2022-12-11T00:06:20.841Z,75.40
2022-12-11T00:08:51.868Z,77.40
2022-12-11T00:11:20.566Z,79.00
2022-12-11T00:13:48.791Z,79.30
2022-12-11T00:16:17.143Z,71.10
2022-12-11T00:18:45.621Z,66.50
2022-12-11T00:21:15.173Z,68.10
2022-12-11T00:23:43.925Z,74.00
2022-12-11T00:26:15.555Z,76.10
2022-12-11T00:28:45.619Z,78.70
2022-12-11T00:31:19.444Z,79.80
2022-12-11T00:33:48.450Z,73.90
2022-12-11T00:36:26.154Z,67.70
2022-12-11T00:38:55.209Z,65.90
2022-12-11T00:41:23.341Z,72.90
2022-12-11T00:43:52.253Z,76.70
2022-12-11T00:46:21.695Z,78.30
2022-12-11T00:48:49.879Z,79.30
2022-12-11T00:51:18.665Z,80.50
2022-12-11T00:53:46.715Z,74.20
2022-12-11T00:56:17.457Z,68.60
2022-12-11T00:58:47.019Z,67.10
2022-12-11T01:01:22.037Z,74.00
2022-12-11T01:03:51.042Z,76.90
2022-12-11T01:06:25.213Z,78.40
2022-12-11T01:08:55.292Z,80.20
2022-12-11T01:11:23.513Z,79.00
2022-12-11T01:13:51.562Z,70.20
2022-12-11T01:16:19.913Z,66.50
2022-12-11T01:18:48.050Z,70.80
2022-12-11T01:21:16.523Z,75.30
2022-12-11T01:23:44.646Z,77.60
2022-12-11T01:26:16.609Z,79.10
2022-12-11T01:28:45.688Z,80.40
2022-12-11T01:31:16.650Z,81.10
2022-12-11T01:33:45.341Z,72.60
2022-12-11T01:36:19.311Z,67.60
2022-12-11T01:38:49.295Z,68.60
2022-12-11T01:41:19.221Z,74.80
2022-12-11T01:44:16.881Z,77.50
2022-12-11T01:46:45.066Z,79.70
2022-12-11T01:49:16.024Z,80.70
2022-12-11T01:51:48.904Z,79.20
2022-12-11T01:54:19.999Z,70.60
2022-12-11T01:56:50.556Z,67.10
2022-12-11T01:59:23.934Z,73.80
2022-12-11T02:02:06.806Z,77.60
2022-12-11T02:04:38.144Z,79.50
2022-12-11T02:07:07.039Z,80.50
2022-12-11T02:09:38.141Z,81.30
2022-12-11T02:12:22.515Z,75.00
2022-12-11T02:15:12.511Z,69.00
2022-12-11T02:21:19.629Z,76.70
2022-12-11T02:24:14.057Z,79.20
2022-12-11T02:27:03.680Z,81.20
2022-12-11T02:29:40.038Z,82.10
2022-12-11T02:32:24.232Z,74.50
2022-12-11T02:35:15.808Z,69.30
2022-12-11T02:37:47.681Z,71.60
2022-12-11T02:40:22.965Z,77.00
2022-12-11T02:42:52.861Z,78.70
2022-12-11T02:45:23.490Z,80.30
2022-12-11T02:47:53.241Z,81.80
2022-12-11T02:50:23.823Z,82.70
2022-12-11T02:52:56.333Z,74.10
2022-12-11T02:55:26.963Z,69.30
2022-12-11T02:58:38.546Z,71.30
2022-12-11T03:01:07.025Z,77.20
2022-12-11T03:03:35.492Z,79.60
2022-12-11T03:06:03.987Z,81.70
2022-12-11T03:08:32.878Z,82.00
2022-12-11T03:11:01.228Z,81.50
2022-12-11T03:13:30.341Z,72.20
2022-12-11T03:16:20.279Z,68.50
2022-12-11T03:19:23.291Z,73.20
2022-12-11T03:21:56.149Z,78.30
2022-12-11T03:24:34.147Z,80.30
2022-12-11T03:27:18.201Z,81.40
2022-12-11T03:30:05.479Z,82.20
2022-12-11T03:33:04.411Z,73.20
2022-12-11T03:35:43.717Z,68.30
2022-12-11T03:38:24.871Z,74.80
2022-12-11T03:40:56.952Z,78.20
2022-12-11T03:43:27.036Z,80.40
2022-12-11T03:45:56.539Z,81.40
2022-12-11T03:48:27.861Z,83.00
2022-12-11T03:50:56.559Z,76.00
2022-12-11T03:53:26.635Z,70.10
2022-12-11T03:55:56.940Z,68.50
2022-12-11T03:58:25.420Z,75.10
2022-12-11T04:00:53.475Z,78.50
2022-12-11T04:03:22.060Z,80.50
2022-12-11T04:05:54.046Z,81.40
2022-12-11T04:08:23.458Z,82.20
2022-12-11T04:10:52.540Z,83.10
2022-12-11T04:13:20.799Z,75.60
2022-12-11T04:15:49.073Z,69.90
2022-12-11T04:18:17.189Z,68.30
2022-12-11T04:20:45.528Z,75.40
2022-12-11T04:23:16.777Z,78.20
2022-12-11T04:25:45.115Z,80.30
2022-12-11T04:28:14.022Z,81.50
2022-12-11T04:30:42.264Z,82.20
2022-12-11T04:33:10.487Z,83.40
2022-12-11T04:35:38.660Z,74.00
2022-12-11T04:38:06.904Z,69.70
2022-12-11T04:40:35.129Z,71.70
2022-12-11T04:43:03.285Z,77.80
2022-12-11T04:45:31.609Z,79.50
2022-12-11T04:47:59.840Z,80.70
2022-12-11T04:50:27.964Z,82.70
2022-12-11T04:52:57.336Z,83.40
2022-12-11T04:55:25.757Z,76.50
2022-12-11T04:57:54.096Z,70.90
2022-12-11T05:00:22.372Z,73.00
2022-12-11T05:02:50.606Z,78.00
2022-12-11T05:05:18.924Z,80.60
2022-12-11T05:07:47.118Z,81.20
2022-12-11T05:10:15.348Z,82.60
2022-12-11T05:12:43.730Z,83.80
2022-12-11T05:15:12.142Z,81.50
2022-12-11T05:17:41.362Z,73.00
2022-12-11T05:20:10.568Z,69.30
2022-12-11T05:22:39.870Z,73.40
2022-12-11T05:25:08.595Z,78.10
2022-12-11T05:27:37.212Z,80.60
2022-12-11T05:30:06.091Z,81.40
2022-12-11T05:32:34.426Z,83.10
2022-12-11T05:35:02.574Z,83.80
2022-12-11T05:37:31.194Z,81.40
2022-12-11T05:39:59.338Z,72.70
2022-12-11T05:42:29.195Z,69.30
2022-12-11T05:47:46.787Z,79.40
2022-12-11T05:50:15.106Z,81.50
2022-12-11T05:52:43.457Z,82.20
2022-12-11T05:55:11.936Z,83.50
2022-12-11T05:57:40.159Z,84.60
2022-12-11T06:00:09.448Z,84.30
2022-12-11T06:02:37.967Z,74.80
2022-12-11T06:05:06.626Z,70.40
2022-12-11T06:07:34.855Z,74.90
2022-12-11T06:10:03.132Z,78.80
2022-12-11T06:12:32.378Z,80.30
2022-12-11T06:15:00.612Z,82.20
2022-12-11T06:17:29.099Z,83.30
2022-12-11T06:19:57.364Z,84.30
2022-12-11T06:22:25.666Z,84.90
2022-12-11T06:24:54.028Z,79.00
2022-12-11T06:27:22.169Z,72.50
2022-12-11T06:29:51.853Z,69.80
2022-12-11T06:32:20.311Z,75.70
2022-12-11T06:34:48.933Z,79.60
2022-12-11T17:35:43.257Z,66.10
2022-12-11T17:38:17.513Z,65.60
2022-12-11T17:40:46.004Z,65.50
2022-12-11T17:43:14.407Z,65.20
2022-12-11T17:45:44.171Z,65.30
2022-12-11T17:48:13.322Z,65.00
2022-12-11T17:50:48.031Z,65.10
2022-12-11T17:53:18.401Z,65.10
2022-12-11T17:55:47.539Z,65.50
2022-12-11T17:58:21.951Z,65.80
2022-12-11T18:00:53.099Z,66.10
2022-12-11T18:03:22.196Z,65.60
2022-12-11T18:05:53.582Z,65.50
2022-12-11T18:08:25.002Z,65.60
2022-12-11T18:10:54.681Z,65.70
2022-12-11T18:13:24.100Z,63.60
2022-12-11T18:16:04.539Z,60.30
2022-12-11T18:18:33.327Z,59.20
2022-12-11T18:21:01.915Z,58.90
2022-12-11T18:23:30.063Z,57.90
2022-12-11T18:25:58.327Z,57.00
2022-12-11T18:28:26.594Z,56.50
2022-12-11T18:30:55.322Z,55.70
2022-12-11T18:33:24.030Z,55.20
2022-12-11T18:35:53.436Z,54.10
2022-12-11T18:38:21.935Z,53.80
2022-12-11T18:40:50.450Z,52.90
2022-12-11T18:43:18.918Z,52.70
2022-12-11T18:45:47.355Z,53.00
2022-12-11T18:48:16.172Z,52.70
2022-12-11T18:50:49.385Z,52.30
2022-12-11T18:53:19.257Z,53.00
2022-12-11T18:55:49.536Z,52.60
2022-12-11T18:58:19.839Z,52.10
2022-12-11T19:00:48.446Z,51.90
2022-12-11T19:03:16.940Z,52.00
2022-12-11T19:05:45.442Z,53.00
2022-12-11T19:08:14.504Z,52.70
2022-12-11T19:10:47.724Z,59.00
2022-12-11T19:13:16.260Z,64.20
2022-12-11T19:15:45.477Z,67.10
2022-12-11T19:18:13.943Z,69.10
2022-12-11T19:20:53.073Z,70.30
2022-12-11T19:23:26.289Z,64.60
2022-12-11T19:25:54.790Z,59.60
2022-12-11T19:28:25.024Z,58.80
2022-12-11T19:30:53.427Z,66.20
2022-12-11T19:33:21.993Z,70.60
2022-12-11T19:35:50.408Z,72.00
2022-12-11T19:38:22.549Z,72.60
2022-12-11T19:40:52.590Z,68.60
2022-12-11T19:43:20.998Z,63.00
2022-12-11T19:45:50.578Z,61.20
2022-12-11T19:48:18.944Z,63.10
2022-12-11T19:50:47.567Z,69.30
2022-12-11T19:53:15.768Z,71.80
2022-12-11T19:55:51.098Z,73.60
2022-12-11T19:58:20.475Z,74.50
2022-12-11T20:00:49.231Z,66.90
2022-12-11T20:03:17.387Z,62.70
2022-12-11T20:05:45.806Z,61.50
2022-12-11T20:08:42.933Z,68.80
2022-12-11T20:11:15.831Z,72.80
2022-12-11T20:13:46.969Z,74.60
2022-12-11T20:16:16.416Z,73.00
2022-12-11T20:18:45.160Z,65.60
2022-12-11T20:21:16.412Z,62.80
2022-12-11T20:23:45.291Z,64.50
2022-12-11T20:26:17.348Z,71.40
2022-12-11T20:28:47.742Z,74.30
2022-12-11T20:31:20.316Z,76.40
2022-12-11T20:33:49.651Z,70.30
2022-12-11T20:36:21.314Z,65.40
2022-12-11T20:38:50.345Z,62.50
2022-12-11T20:41:22.983Z,62.40
2022-12-11T20:43:52.264Z,69.80
2022-12-11T20:46:22.850Z,73.20
2022-12-11T20:48:51.836Z,75.00
2022-12-11T20:51:25.477Z,75.70
2022-12-11T20:53:55.840Z,66.90
2022-12-11T20:56:24.738Z,62.90
2022-12-11T20:58:53.213Z,61.00
2022-12-11T21:01:24.785Z,67.30
2022-12-11T21:03:54.559Z,72.20
2022-12-11T21:06:33.517Z,74.20
2022-12-11T21:11:58.701Z,71.20
2022-12-11T21:14:27.199Z,74.10
2022-12-11T21:16:55.628Z,69.70
2022-12-11T21:19:24.043Z,65.00
2022-12-11T21:21:52.893Z,62.70
2022-12-11T21:24:29.384Z,61.00
2022-12-11T21:26:58.860Z,59.70
2022-12-11T21:29:28.616Z,58.50
2022-12-11T21:31:57.662Z,57.30
2022-12-11T21:34:26.139Z,56.80
2022-12-11T21:36:55.283Z,55.40
2022-12-11T21:39:28.238Z,56.40
2022-12-11T21:41:56.597Z,64.60
2022-12-11T21:47:14.075Z,70.10
2022-12-11T21:49:42.712Z,71.70
2022-12-11T21:52:11.331Z,72.80
2022-12-11T21:54:39.435Z,68.70
2022-12-11T21:57:08.085Z,63.40
2022-12-11T21:59:36.407Z,61.40
2022-12-11T22:02:04.972Z,66.20
2022-12-11T22:04:32.914Z,71.50
2022-12-11T22:07:01.323Z,74.60
2022-12-11T22:09:29.443Z,75.40
2022-12-11T22:11:58.774Z,67.10
2022-12-11T22:14:27.512Z,63.70
2022-12-11T22:16:55.729Z,61.70
2022-12-11T22:19:26.630Z,63.90
2022-12-11T22:21:59.005Z,69.90
2022-12-11T22:24:27.453Z,72.80
2022-12-11T22:26:55.756Z,74.50
2022-12-11T22:29:24.009Z,70.10
2022-12-11T22:31:52.428Z,65.10
2022-12-11T22:34:20.859Z,62.20
2022-12-11T22:36:49.180Z,60.90
2022-12-11T22:39:17.275Z,59.50
2022-12-11T22:41:45.675Z,58.70
2022-12-11T22:44:17.413Z,57.40
2022-12-11T22:46:50.217Z,56.50
2022-12-11T22:49:20.235Z,55.20
2022-12-11T22:51:48.849Z,55.00
2022-12-11T22:54:17.107Z,53.90
2022-12-11T22:56:45.490Z,53.70
2022-12-11T22:59:13.880Z,53.80
2022-12-11T23:01:42.234Z,52.50
2022-12-11T23:04:10.576Z,52.40
2022-12-11T23:06:39.045Z,59.00
2022-12-11T23:09:07.226Z,64.00
2022-12-11T23:11:38.476Z,66.30
2022-12-11T23:14:08.977Z,67.50
2022-12-11T23:16:37.475Z,68.30
2022-12-11T23:19:06.559Z,63.20
2022-12-11T23:21:34.954Z,59.60
2022-12-11T23:24:03.984Z,62.20
2022-12-11T23:26:33.249Z,68.20
2022-12-11T23:29:01.658Z,70.30
2022-12-11T23:31:31.304Z,71.00
2022-12-11T23:33:59.544Z,70.20
2022-12-11T23:36:29.150Z,63.30
2022-12-11T23:38:58.135Z,60.90
2022-12-11T23:41:26.493Z,63.30
2022-12-11T23:43:54.688Z,69.40
2022-12-11T23:46:24.748Z,72.80
2022-12-11T23:48:54.538Z,73.60
2022-12-11T23:51:25.039Z,73.40
2022-12-11T23:53:53.738Z,65.30
2022-12-11T23:56:25.473Z,62.80
2022-12-11T23:58:55.074Z,61.40
